Time;durP1;ratioP1;P1;durP2;ratioP2;P2;SDS_P1;SDS_P2;PMS_P1;PMS_P2;Temp;Humidity;BMP_temperature;BMP_pressure;BME280_temperature;BME280_humidity;BME280_pressure;Samples;Min_cycle;Max_cycle;Signal;HPM_P1;HPM_P2
2022/10/22 00:01:21;;;;;;;9.25;6.85;;;;;;;10.63;100.00;98115.09;4162512;28;20073;-74
2022/10/22 00:03:22;;;;;;;8.82;6.95;;;;;;;10.61;100.00;98100.88;4157361;28;20756;-74
2022/10/22 00:05:22;;;;;;;9.57;7.20;;;;;;;10.64;100.00;98117.47;4157941;28;20046;-74
2022/10/22 00:07:23;;;;;;;8.93;6.60;;;;;;;10.64;100.00;98111.16;4158321;28;20639;-74
2022/10/22 00:09:23;;;;;;;9.93;7.28;;;;;;;10.63;100.00;98109.56;4157593;28;20049;-74
2022/10/22 00:11:23;;;;;;;9.57;6.82;;;;;;;10.63;100.00;98110.38;4156695;28;20057;-74
2022/10/22 00:13:24;;;;;;;10.55;7.60;;;;;;;10.64;100.00;98111.16;4158957;28;20748;-74
2022/10/22 00:15:24;;;;;;;7.10;6.40;;;;;;;10.63;100.00;98109.56;4157604;28;20044;-74
2022/10/22 00:17:25;;;;;;;11.38;8.75;;;;;;;10.59;100.00;98108.75;4156513;28;20045;-74
2022/10/22 00:19:26;;;;;;;9.35;7.07;;;;;;;10.59;100.00;98109.56;4156977;28;20508;-74
2022/10/22 00:21:28;;;;;;;8.45;7.28;;;;;;;10.57;100.00;98114.66;4157967;28;20041;-74
2022/10/22 00:23:28;;;;;;;9.82;7.95;;;;;;;10.56;100.00;98092.94;4160075;28;20039;-74
2022/10/22 00:25:28;;;;;;;12.82;6.50;;;;;;;10.56;100.00;98101.22;4156706;28;20404;-74
2022/10/22 00:27:28;;;;;;;10.10;7.43;;;;;;;10.53;100.00;98097.28;4160839;28;20082;-74
2022/10/22 00:29:29;;;;;;;9.95;7.60;;;;;;;10.51;100.00;98102.41;4157688;28;20051;-74
2022/10/22 00:31:29;;;;;;;8.85;7.25;;;;;;;10.50;100.00;98100.00;4158378;28;20041;-74
2022/10/22 00:33:30;;;;;;;10.77;7.10;;;;;;;10.48;100.00;98113.44;4157483;28;20049;-74
2022/10/22 00:35:31;;;;;;;7.75;6.15;;;;;;;10.48;100.00;98121.72;4158043;28;20120;-74
2022/10/22 00:37:32;;;;;;;13.15;9.13;;;;;;;10.46;100.00;98124.09;4157643;28;20050;-74
2022/10/22 00:39:32;;;;;;;13.10;8.15;;;;;;;10.47;100.00;98125.69;4156456;28;20052;-74
2022/10/22 00:41:32;;;;;;;10.68;7.20;;;;;;;10.39;100.00;98117.34;4157339;28;20061;-74
2022/10/22 00:43:33;;;;;;;11.32;7.85;;;;;;;10.39;100.00;98128.41;4157436;28;20095;-74
2022/10/22 00:45:33;;;;;;;8.95;6.97;;;;;;;10.42;100.00;98129.59;4154967;28;20037;-74
2022/10/22 00:47:56;;;;;;;10.25;8.15;;;;;;;10.44;100.00;98130.03;4158300;28;20080;-74
2022/10/22 00:49:57;;;;;;;11.23;7.55;;;;;;;10.41;100.00;98130.78;4158966;28;20073;-74
2022/10/22 00:51:58;;;;;;;9.75;7.13;;;;;;;10.40;100.00;98134.72;4156749;28;20580;-74
2022/10/22 00:54:05;;;;;;;9.75;6.70;;;;;;;10.41;100.00;98130.78;4156910;28;20056;-74
2022/10/22 00:56:07;;;;;;;9.07;5.88;;;;;;;10.43;100.00;98138.72;4156159;28;20426;-74
2022/10/22 00:58:08;;;;;;;10.30;6.90;;;;;;;10.41;100.00;98148.16;4157390;28;20655;-74
2022/10/22 01:00:09;;;;;;;8.63;6.50;;;;;;;10.40;100.00;98165.94;4156718;28;20489;-74
2022/10/22 01:02:09;;;;;;;10.27;6.63;;;;;;;10.38;100.00;98165.53;4157070;28;20454;-74
2022/10/22 01:04:10;;;;;;;11.77;6.78;;;;;;;10.37;100.00;98172.25;4158275;28;20500;-74
2022/10/22 01:06:17;;;;;;;8.98;6.68;;;;;;;10.42;100.00;98179.38;4159607;28;20033;-74
2022/10/22 01:08:44;;;;;;;10.00;6.80;;;;;;;10.43;100.00;98158.84;4157788;28;20083;-74
2022/10/22 01:11:02;;;;;;;12.13;6.80;;;;;;;10.44;100.00;98145.81;4149640;28;20569;-74
2022/10/22 01:13:30;;;;;;;7.47;6.68;;;;;;;10.47;100.00;98143.06;4158291;28;20063;-74
2022/10/22 01:15:42;;;;;;;11.52;7.95;;;;;;;10.46;100.00;98143.47;4157684;28;20041;-74
2022/10/22 01:18:00;;;;;;;9.57;6.22;;;;;;;10.44;100.00;98146.63;4161324;28;20054;-74
2022/10/22 01:20:14;;;;;;;9.70;6.78;;;;;;;10.46;100.00;98149.00;4156594;28;20042;-74
2022/10/22 01:22:28;;;;;;;10.00;6.28;;;;;;;10.41;100.00;98136.31;4158239;28;20053;-74
2022/10/22 01:24:41;;;;;;;9.45;5.95;;;;;;;10.44;100.00;98134.75;4157267;28;20120;-74
2022/10/22 01:26:53;;;;;;;;;;;;;;;10.45;100.00;98139.09;4162597;28;20293;-74
2022/10/22 01:29:11;;;;;;;6.82;5.25;;;;;;;10.47;100.00;98134.78;4157450;28;20027;-73
2022/10/22 01:31:14;;;;;;;7.20;5.40;;;;;;;10.49;100.00;98134.38;4155662;28;20072;-74
2022/10/22 01:33:18;;;;;;;11.95;5.93;;;;;;;10.46;100.00;98121.34;4155944;28;20477;-74
2022/10/22 01:35:24;;;;;;;6.60;5.35;;;;;;;10.47;100.00;98118.16;4160621;28;20052;-74
2022/10/22 01:37:29;;;;;;;11.75;5.43;;;;;;;10.49;100.00;98117.78;4157249;28;20539;-74
2022/10/22 01:39:30;;;;;;;11.50;5.00;;;;;;;10.47;100.00;98098.03;4154422;28;20092;-74
2022/10/22 01:41:30;;;;;;;6.85;4.80;;;;;;;10.45;100.00;98103.94;4158801;28;20404;-74
2022/10/22 01:43:30;;;;;;;7.43;5.32;;;;;;;10.43;100.00;98094.47;4157712;28;20117;-74
2022/10/22 01:45:45;;;;;;;7.00;5.55;;;;;;;10.40;100.00;98091.25;4156402;28;20033;-74
2022/10/22 01:47:55;;;;;;;6.53;5.35;;;;;;;10.37;100.00;98078.22;4155546;28;20145;-74
2022/10/22 01:50:21;;;;;;;8.85;4.78;;;;;;;10.36;100.00;98073.88;4162012;28;20041;-74
2022/10/22 01:52:40;;;;;;;6.30;5.45;;;;;;;10.35;100.00;98065.97;4156580;28;20052;-74
2022/10/22 01:54:58;;;;;;;9.93;5.45;;;;;;;10.38;100.00;98077.03;4156439;28;20050;-74
2022/10/22 01:57:11;;;;;;;8.35;6.38;;;;;;;10.39;100.00;98064.00;4159245;28;20045;-74
2022/10/22 01:59:27;;;;;;;15.25;8.43;;;;;;;10.41;100.00;98064.41;4155055;28;20084;-74
2022/10/22 02:01:33;;;;;;;11.65;7.07;;;;;;;10.40;100.00;98071.91;4159948;28;20057;-74
2022/10/22 02:03:40;;;;;;;10.27;6.55;;;;;;;10.38;100.00;98065.19;4158239;28;20049;-74
2022/10/22 02:05:52;;;;;;;9.68;6.03;;;;;;;10.39;100.00;98067.56;4155483;28;20045;-74
2022/10/22 02:08:04;;;;;;;7.75;5.43;;;;;;;10.37;100.00;98072.69;4156894;28;20413;-74
2022/10/22 02:10:07;;;;;;;8.87;6.13;;;;;;;10.37;100.00;98078.22;4155930;28;20464;-74
2022/10/22 02:12:09;;;;;;;8.20;4.70;;;;;;;10.36;100.00;98064.78;4157495;28;20128;-74
2022/10/22 02:14:11;;;;;;;7.57;4.78;;;;;;;10.34;100.00;98056.88;4159142;28;20033;-74
2022/10/22 02:16:17;;;;;;;7.47;5.55;;;;;;;10.37;100.00;98063.59;4155332;28;20433;-74
2022/10/22 02:18:22;;;;;;;7.57;5.22;;;;;;;10.38;100.00;98059.66;4159858;28;20036;-74
2022/10/22 02:20:26;;;;;;;9.38;5.55;;;;;;;10.36;100.00;98062.81;4156629;28;20060;-74
2022/10/22 02:22:28;;;;;;;7.25;4.65;;;;;;;10.38;100.00;98079.00;4158878;28;20057;-74
2022/10/22 02:24:29;;;;;;;5.80;4.97;;;;;;;10.37;100.00;98080.19;4156139;28;20048;-74
2022/10/22 02:26:37;;;;;;;6.93;5.18;;;;;;;10.38;100.00;98076.25;4159943;28;20124;-74
2022/10/22 02:28:57;;;;;;;9.25;5.13;;;;;;;10.34;100.00;98079.00;4157317;28;20040;-74
2022/10/22 02:31:10;;;;;;;7.10;5.55;;;;;;;10.39;100.00;98083.34;4154858;28;20474;-74
2022/10/22 02:33:44;;;;;;;9.70;6.25;;;;;;;10.40;100.00;98088.50;4154649;28;20313;-74
2022/10/22 02:35:45;;;;;;;10.80;6.15;;;;;;;10.41;100.00;98081.78;4147933;28;20342;-74
2022/10/22 02:37:47;;;;;;;14.05;7.22;;;;;;;10.40;100.00;98087.69;4157581;28;20267;-74
2022/10/22 02:39:47;;;;;;;11.93;7.60;;;;;;;10.42;100.00;98085.34;4155070;28;20870;-74
2022/10/22 02:41:48;;;;;;;11.43;6.40;;;;;;;10.41;100.00;98092.84;4156649;28;20079;-74
2022/10/22 02:43:52;;;;;;;10.50;7.07;;;;;;;10.40;100.00;98087.69;4156791;28;20516;-74
2022/10/22 02:45:52;;;;;;;8.35;6.20;;;;;;;10.40;100.00;98091.25;4156546;28;20052;-74
2022/10/22 02:47:53;;;;;;;8.25;5.63;;;;;;;10.39;100.00;98088.88;4153742;28;20701;-74
2022/10/22 02:49:53;;;;;;;8.75;6.38;;;;;;;10.39;100.00;98086.13;4153740;28;20504;-74
2022/10/22 02:51:53;;;;;;;8.57;6.10;;;;;;;10.39;100.00;98095.22;4157633;28;20094;-74
2022/10/22 02:53:54;;;;;;;6.90;5.50;;;;;;;10.39;100.00;98095.22;4154948;28;20151;-74
2022/10/22 02:55:54;;;;;;;6.68;5.20;;;;;;;10.39;100.00;98106.28;4155472;28;20235;-74
2022/10/22 02:57:55;;;;;;;6.45;4.80;;;;;;;10.42;100.00;98104.69;4155418;28;20046;-74
2022/10/22 02:59:55;;;;;;;10.23;6.32;;;;;;;10.39;100.00;98103.50;4160980;28;20497;-74
2022/10/22 03:01:55;;;;;;;9.85;6.57;;;;;;;10.46;100.00;98113.81;4157408;28;20075;-74
2022/10/22 03:03:55;;;;;;;8.10;6.55;;;;;;;10.45;100.00;98109.47;4153658;28;20045;-74
2022/10/22 03:05:56;;;;;;;13.27;6.93;;;;;;;10.49;100.00;98109.47;4157168;28;20065;-74
2022/10/22 03:07:56;;;;;;;8.43;5.65;;;;;;;10.49;100.00;98115.00;4160103;28;20425;-74
2022/10/22 03:09:56;;;;;;;9.77;6.55;;;;;;;10.50;100.00;98113.84;4153833;28;20099;-74
2022/10/22 03:11:57;;;;;;;9.73;5.95;;;;;;;10.52;100.00;98122.56;4155333;28;20046;-74
2022/10/22 03:13:57;;;;;;;7.88;5.78;;;;;;;10.53;100.00;98113.09;4154491;28;20448;-74
2022/10/22 03:15:57;;;;;;;7.78;6.05;;;;;;;10.54;100.00;98112.69;4154137;28;20085;-74
2022/10/22 03:17:58;;;;;;;8.55;5.47;;;;;;;10.56;100.00;98110.31;4155019;28;20481;-74
2022/10/22 03:19:58;;;;;;;8.80;5.63;;;;;;;10.55;100.00;98105.97;4154814;28;20529;-74
2022/10/22 03:22:01;;;;;;;10.15;6.00;;;;;;;10.56;100.00;98107.56;4156961;28;20124;-74
2022/10/22 03:24:07;;;;;;;6.80;5.40;;;;;;;10.56;100.00;98110.31;4153730;28;20438;-74
2022/10/22 03:26:09;;;;;;;6.07;5.40;;;;;;;10.59;100.00;98109.56;4156355;28;20233;-74
2022/10/22 03:28:12;;;;;;;6.20;5.53;;;;;;;10.59;100.00;98112.34;4157136;28;20414;-74
2022/10/22 03:30:13;;;;;;;8.43;5.38;;;;;;;10.58;100.00;98102.41;4154227;28;20446;-74
2022/10/22 03:32:13;;;;;;;7.05;5.53;;;;;;;10.59;100.00;98097.69;4155554;28;20083;-74
2022/10/22 03:34:13;;;;;;;7.38;5.30;;;;;;;10.58;100.00;98091.34;4156148;28;20025;-74
2022/10/22 03:36:14;;;;;;;9.07;6.10;;;;;;;10.57;100.00;98098.06;4156799;28;20036;-74
2022/10/22 03:38:14;;;;;;;7.07;5.25;;;;;;;10.56;100.00;98099.25;4155281;28;20523;-74
2022/10/22 03:40:15;;;;;;;7.30;5.45;;;;;;;10.57;100.00;98095.31;4155558;28;20029;-74
2022/10/22 03:42:16;;;;;;;10.20;6.53;;;;;;;10.59;100.00;98095.72;4157196;28;20035;-74
2022/10/22 03:44:17;;;;;;;11.95;7.07;;;;;;;10.62;100.00;98102.47;4153408;28;20065;-74
2022/10/22 03:46:18;;;;;;;8.10;6.10;;;;;;;10.60;100.00;98105.63;4157328;28;20473;-74
2022/10/22 03:48:18;;;;;;;8.50;5.50;;;;;;;10.65;100.00;98121.03;4155917;28;20112;-74
2022/10/22 03:50:18;;;;;;;7.55;5.78;;;;;;;10.64;100.00;98119.47;4153572;28;20115;-74
2022/10/22 03:52:19;;;;;;;7.70;5.07;;;;;;;10.61;100.00;98125.78;4153849;28;20038;-74
2022/10/22 03:54:19;;;;;;;5.60;4.55;;;;;;;10.58;100.00;98127.31;4154937;28;20803;-74
2022/10/22 03:56:19;;;;;;;6.03;4.68;;;;;;;10.58;100.00;98119.03;4158369;28;20377;-74
2022/10/22 03:58:20;;;;;;;7.07;4.60;;;;;;;10.57;100.00;98116.66;4156822;28;20322;-74
2022/10/22 04:00:20;;;;;;;8.85;5.05;;;;;;;10.59;100.00;98122.56;4157784;28;20053;-74
2022/10/22 04:02:20;;;;;;;5.90;4.75;;;;;;;10.57;100.00;98134.03;4158157;28;20045;-74
2022/10/22 04:04:21;;;;;;;8.63;5.07;;;;;;;10.59;100.00;98142.75;4155512;28;20057;-74
2022/10/22 04:06:21;;;;;;;6.95;4.63;;;;;;;10.61;100.00;98147.91;4154435;28;20040;-74
2022/10/22 04:08:22;;;;;;;7.53;4.85;;;;;;;10.60;100.00;98149.09;4157891;28;20045;-74
2022/10/22 04:10:22;;;;;;;6.70;4.28;;;;;;;10.61;100.00;98161.72;4155813;28;20054;-74
2022/10/22 04:12:22;;;;;;;6.95;5.10;;;;;;;10.60;100.00;98157.38;4157445;28;20067;-74
2022/10/22 04:14:23;;;;;;;6.35;4.28;;;;;;;10.63;100.00;98175.97;4157359;28;20347;-74
2022/10/22 04:16:23;;;;;;;6.13;4.50;;;;;;;10.64;100.00;98177.56;4154663;28;20056;-74
2022/10/22 04:18:23;;;;;;;5.82;4.65;;;;;;;10.69;100.00;98186.28;4156029;28;20049;-74
2022/10/22 04:20:23;;;;;;;10.13;6.25;;;;;;;10.78;100.00;98177.66;4157774;28;20029;-74
2022/10/22 04:22:24;;;;;;;7.65;5.40;;;;;;;10.82;100.00;98183.97;4159940;28;20541;-74
2022/10/22 04:24:24;;;;;;;7.75;5.95;;;;;;;10.85;100.00;98180.47;4160870;28;20539;-74
2022/10/22 04:26:25;;;;;;;7.95;6.50;;;;;;;10.97;100.00;98173.78;4159162;28;20034;-74
2022/10/22 04:28:25;;;;;;;7.20;6.15;;;;;;;11.03;100.00;98172.25;4159091;28;20037;-74
2022/10/22 04:30:26;;;;;;;8.75;6.15;;;;;;;11.05;100.00;98178.19;4158965;28;20041;-74
2022/10/22 04:32:27;;;;;;;5.63;4.95;;;;;;;11.05;100.00;98172.63;4157337;28;20130;-74
2022/10/22 04:34:28;;;;;;;7.13;5.50;;;;;;;11.08;100.00;98171.06;4158009;28;20376;-74
2022/10/22 04:36:28;;;;;;;8.88;5.65;;;;;;;11.07;100.00;98184.13;4160206;28;20481;-74
2022/10/22 04:38:29;;;;;;;10.32;6.43;;;;;;;11.10;100.00;98174.25;4157271;28;20128;-74
2022/10/22 04:40:29;;;;;;;9.48;6.85;;;;;;;11.13;100.00;98199.19;4160225;28;20057;-74
2022/10/22 04:42:30;;;;;;;7.55;6.30;;;;;;;11.14;100.00;98186.13;4160298;28;20054;-74
2022/10/22 04:44:30;;;;;;;7.75;6.32;;;;;;;11.13;100.00;98199.19;4160556;28;20457;-74
2022/10/22 04:46:33;;;;;;;13.70;7.55;;;;;;;11.14;100.00;98181.38;4159447;28;20420;-74
2022/10/22 04:48:35;;;;;;;9.02;7.10;;;;;;;11.29;100.00;98196.09;4162170;28;20444;-74
2022/10/22 04:50:35;;;;;;;13.23;7.30;;;;;;;11.40;100.00;98190.59;4159508;28;20374;-74
2022/10/22 04:52:36;;;;;;;10.30;5.75;;;;;;;11.59;100.00;98192.25;4159577;28;20059;-74
2022/10/22 04:54:36;;;;;;;7.40;4.68;;;;;;;11.67;100.00;98191.88;4161397;28;20523;-74
2022/10/22 04:56:36;;;;;;;7.30;4.22;;;;;;;11.70;100.00;98187.50;4158162;28;20074;-75
2022/10/22 04:58:38;;;;;;;5.55;3.40;;;;;;;11.74;100.00;98188.31;4158783;28;20037;-74
2022/10/22 05:00:38;;;;;;;5.57;3.30;;;;;;;11.78;100.00;98194.66;4162728;28;20127;-75
2022/10/22 05:02:39;;;;;;;3.90;2.75;;;;;;;11.78;100.00;98189.91;4158070;28;20138;-74
2022/10/22 05:04:42;;;;;;;4.20;2.90;;;;;;;11.79;100.00;98185.94;4160740;28;20042;-75
2022/10/22 05:06:43;;;;;;;5.68;2.35;;;;;;;11.80;100.00;98184.00;4159159;28;20057;-74
2022/10/22 05:08:43;;;;;;;5.55;2.75;;;;;;;11.82;100.00;98181.63;4159654;28;20037;-75
2022/10/22 05:10:44;;;;;;;3.60;1.98;;;;;;;11.85;100.00;98185.59;4160905;28;20545;-75
2022/10/22 05:12:44;;;;;;;3.78;1.90;;;;;;;11.88;100.00;98184.81;4157588;28;20072;-74
2022/10/22 05:14:44;;;;;;;2.75;2.00;;;;;;;11.88;100.00;98176.50;4158038;28;20083;-74
2022/10/22 05:16:46;;;;;;;3.10;1.95;;;;;;;11.94;100.00;98191.56;4159138;28;20057;-75
2022/10/22 05:18:47;;;;;;;3.95;1.80;;;;;;;12.06;100.00;98193.94;4157990;28;20052;-74
2022/10/22 05:20:47;;;;;;;2.30;1.58;;;;;;;12.12;100.00;98195.13;4158056;28;20041;-74
2022/10/22 05:22:47;;;;;;;3.22;1.63;;;;;;;12.12;100.00;98202.66;4157234;28;20600;-75
2022/10/22 05:24:48;;;;;;;2.20;1.88;;;;;;;12.12;100.00;98189.59;4157601;28;20681;-74
2022/10/22 05:26:52;;;;;;;2.63;1.60;;;;;;;12.06;100.00;98182.84;4156924;28;20037;-75
2022/10/22 05:28:52;;;;;;;3.30;2.10;;;;;;;12.06;100.00;98177.28;4156225;28;20107;-75
2022/10/22 05:30:58;;;;;;;3.25;1.80;;;;;;;11.99;100.00;98166.19;4157708;28;20045;-75
2022/10/22 05:32:58;;;;;;;2.95;1.40;;;;;;;12.01;100.00;98163.84;4160324;28;20138;-74
2022/10/22 05:34:58;;;;;;;2.08;1.23;;;;;;;12.01;100.00;98163.84;4155187;28;20057;-74
2022/10/22 05:36:58;;;;;;;2.58;1.52;;;;;;;12.11;100.00;98168.59;4157656;28;20045;-75
2022/10/22 05:38:59;;;;;;;1.63;1.30;;;;;;;12.09;100.00;98179.28;4159622;28;20184;-75
2022/10/22 05:41:00;;;;;;;2.90;0.90;;;;;;;12.07;100.00;98178.88;4159302;28;20033;-75
2022/10/22 05:43:00;;;;;;;1.98;1.27;;;;;;;12.04;100.00;98172.16;4155297;28;20053;-75
2022/10/22 05:45:01;;;;;;;1.73;1.00;;;;;;;12.02;100.00;98177.31;4159092;28;20057;-75
2022/10/22 05:47:01;;;;;;;1.85;1.17;;;;;;;11.96;100.00;98169.75;4159508;28;20377;-75
2022/10/22 05:49:04;;;;;;;1.60;1.00;;;;;;;11.94;100.00;98172.94;4158757;28;20098;-74
2022/10/22 05:51:07;;;;;;;2.03;1.17;;;;;;;11.99;100.00;98164.22;4158841;28;20049;-75
2022/10/22 05:53:08;;;;;;;2.05;1.13;;;;;;;11.96;100.00;98192.72;4157284;28;20048;-75
2022/10/22 05:55:09;;;;;;;3.60;1.50;;;;;;;12.02;100.00;98205.03;4159839;28;20057;-75
2022/10/22 05:57:09;;;;;;;2.25;1.48;;;;;;;12.00;100.00;98210.19;4157857;28;20052;-75
2022/10/22 05:59:10;;;;;;;2.00;1.20;;;;;;;12.11;100.00;98214.94;4155855;28;20033;-75
2022/10/22 06:01:11;;;;;;;3.30;1.40;;;;;;;12.09;100.00;98229.22;4157095;28;20421;-75
2022/10/22 06:03:12;;;;;;;3.95;2.17;;;;;;;12.08;100.00;98230.38;4158134;28;20131;-75
2022/10/22 06:05:12;;;;;;;7.95;5.07;;;;;;;12.03;100.00;98230.78;4157332;28;20085;-75
2022/10/22 06:07:14;;;;;;;4.47;1.92;;;;;;;12.01;100.00;98227.63;4158770;28;20052;-75
2022/10/22 06:09:35;;;;;;;1.63;1.10;;;;;;;11.99;100.00;98221.63;4159241;28;20053;-75
2022/10/22 06:11:35;;;;;;;2.53;1.30;;;;;;;12.01;100.00;98222.06;4157040;28;20276;-75
2022/10/22 06:13:36;;;;;;;2.22;1.20;;;;;;;12.04;100.00;98224.03;4159045;28;20251;-75
2022/10/22 06:15:36;;;;;;;1.45;1.20;;;;;;;11.97;100.00;98227.59;4157504;28;20730;-75
2022/10/22 06:17:36;;;;;;;1.20;1.02;;;;;;;11.96;100.00;98233.53;4157813;28;20033;-75
2022/10/22 06:19:36;;;;;;;1.58;1.10;;;;;;;11.95;100.00;98234.72;4158858;28;20045;-75
2022/10/22 06:21:37;;;;;;;1.27;0.90;;;;;;;11.92;100.00;98238.28;4159719;28;20033;-75
2022/10/22 06:23:39;;;;;;;1.75;1.00;;;;;;;11.90;100.00;98254.50;4155676;28;20076;-75
2022/10/22 06:25:39;;;;;;;2.38;1.05;;;;;;;11.86;100.00;98260.03;4158486;28;20041;-75
2022/10/22 06:27:39;;;;;;;1.02;0.82;;;;;;;11.82;100.00;98253.69;4157374;28;20043;-75
2022/10/22 06:29:39;;;;;;;1.10;1.00;;;;;;;11.79;100.00;98257.22;4155891;28;20045;-75
2022/10/22 06:31:40;;;;;;;1.30;1.00;;;;;;;11.79;100.00;98257.22;4158141;28;20097;-74
2022/10/22 06:33:43;;;;;;;1.52;0.90;;;;;;;11.81;100.00;98263.97;4158282;28;20041;-74
2022/10/22 06:35:44;;;;;;;1.38;0.90;;;;;;;11.79;100.00;98258.00;4156783;28;20041;-75
2022/10/22 06:37:46;;;;;;;1.70;1.20;;;;;;;11.78;100.00;98261.97;4157433;28;20140;-74
2022/10/22 06:39:46;;;;;;;1.30;1.00;;;;;;;11.76;100.00;98252.47;4159861;28;20604;-75
2022/10/22 06:41:46;;;;;;;1.17;0.90;;;;;;;11.79;100.00;98262.75;4065477;28;20075;-74
2022/10/22 06:43:47;;;;;;;2.20;1.40;;;;;;;11.80;100.00;98258.84;4148390;28;20823;-75
2022/10/22 06:45:47;;;;;;;1.77;0.95;;;;;;;11.86;100.00;98260.03;4158655;28;20539;-74
2022/10/22 06:47:47;;;;;;;2.00;1.08;;;;;;;11.87;100.00;98260.84;4154272;28;20045;-75
2022/10/22 06:49:48;;;;;;;1.67;1.10;;;;;;;11.88;100.00;98262.41;4160246;28;20049;-75
2022/10/22 06:51:51;;;;;;;2.90;1.20;;;;;;;11.85;100.00;98255.69;4154446;28;20045;-75
2022/10/22 06:53:52;;;;;;;1.45;0.90;;;;;;;11.79;100.00;98240.59;4151593;28;22172;-75
2022/10/22 06:55:52;;;;;;;0.85;0.70;;;;;;;11.76;100.00;98236.63;4162123;28;20044;-75
2022/10/22 06:57:54;;;;;;;1.10;0.90;;;;;;;11.75;100.00;98234.22;4159290;28;20049;-75
2022/10/22 06:59:54;;;;;;;1.00;0.80;;;;;;;11.66;100.00;98231.81;4155787;28;20493;-75
2022/10/22 07:01:54;;;;;;;2.72;0.88;;;;;;;11.63;100.00;98252.00;4154827;28;20931;-75
2022/10/22 07:03:55;;;;;;;0.75;0.63;;;;;;;11.66;100.00;98276.16;4155180;28;20079;-75
2022/10/22 07:05:58;;;;;;;0.70;0.70;;;;;;;11.66;100.00;98289.22;4160635;28;20045;-74
2022/10/22 07:07:59;;;;;;;0.93;0.70;;;;;;;11.68;100.00;98301.53;4157370;28;20064;-74
2022/10/22 07:09:59;;;;;;;3.20;1.08;;;;;;;11.67;100.00;98296.38;4159984;28;20098;-74
2022/10/22 07:11:59;;;;;;;0.93;0.75;;;;;;;11.72;100.00;98305.09;4158748;28;20071;-75
2022/10/22 07:14:00;;;;;;;2.33;1.08;;;;;;;11.71;100.00;98300.75;4157630;28;20452;-75
2022/10/22 07:16:00;;;;;;;1.10;0.80;;;;;;;11.67;100.00;98299.94;4156481;28;20045;-74
2022/10/22 07:18:03;;;;;;;1.55;1.00;;;;;;;11.62;100.00;98294.78;4156424;28;20037;-76
2022/10/22 07:20:04;;;;;;;;;;;;;;;11.61;100.00;98306.25;4156696;28;20752;-75
2022/10/22 07:22:04;;;;;;;4.75;2.97;;;;;;;11.57;100.00;98303.44;4155573;28;20064;-75
2022/10/22 07:24:05;;;;;;;7.45;4.97;;;;;;;11.56;100.00;98318.47;4157345;28;20899;-74
2022/10/22 07:26:07;;;;;;;4.53;2.55;;;;;;;11.56;100.00;98337.09;4158326;28;20084;-75
2022/10/22 07:28:07;;;;;;;4.28;2.55;;;;;;;11.54;100.00;98338.28;4157104;28;20045;-74
2022/10/22 07:30:08;;;;;;;4.07;2.40;;;;;;;11.60;100.00;98349.78;4157414;28;20040;-74
2022/10/22 07:32:08;;;;;;;2.55;1.30;;;;;;;11.62;100.00;98346.63;4157023;28;20072;-75
2022/10/22 07:34:09;;;;;;;2.35;1.52;;;;;;;11.65;100.00;98348.59;4159186;28;20033;-74
2022/10/22 07:36:16;;;;;;;2.58;1.60;;;;;;;11.64;100.00;98356.13;4158311;28;20033;-75
2022/10/22 07:38:16;;;;;;;4.47;2.20;;;;;;;11.67;100.00;98363.69;4155515;28;20017;-74
2022/10/22 07:40:17;;;;;;;9.38;5.65;;;;;;;11.72;100.00;98357.75;4152791;28;20029;-74
2022/10/22 07:42:17;;;;;;;10.13;6.60;;;;;;;11.74;100.00;98351.81;4155165;28;20454;-75
2022/10/22 07:44:17;;;;;;;7.43;5.13;;;;;;;11.76;100.00;98355.03;4157300;28;20017;-75
2022/10/22 07:46:19;;;;;;;6.13;4.85;;;;;;;11.74;100.00;98363.69;4158073;28;20037;-75
2022/10/22 07:48:19;;;;;;;5.30;3.72;;;;;;;11.77;100.00;98364.91;4157503;28;20048;-75
2022/10/22 07:50:19;;;;;;;3.95;2.30;;;;;;;11.82;100.00;98364.56;4157454;28;20512;-75
2022/10/22 07:52:19;;;;;;;2.92;1.85;;;;;;;11.86;100.00;98379.25;4157640;28;20029;-74
2022/10/22 07:54:20;;;;;;;2.67;1.60;;;;;;;11.92;100.00;98377.69;4154085;28;21855;-74
2022/10/22 07:56:20;;;;;;;3.08;1.42;;;;;;;11.95;100.00;98373.34;4157887;28;20645;-74
2022/10/22 07:58:20;;;;;;;2.10;1.60;;;;;;;12.00;100.00;98373.78;4160536;28;20108;-75
2022/10/22 08:00:21;;;;;;;1.67;1.20;;;;;;;12.06;100.00;98386.06;4158325;28;20366;-75
2022/10/22 08:02:21;;;;;;;1.50;0.98;;;;;;;12.11;100.00;98396.00;4159427;28;21260;-75
2022/10/22 08:04:22;;;;;;;1.17;1.08;;;;;;;12.19;100.00;98394.03;4157141;28;20469;-75
2022/10/22 08:06:22;;;;;;;3.88;1.30;;;;;;;12.28;100.00;98395.25;4158107;28;20049;-75
2022/10/22 08:08:22;;;;;;;3.13;1.10;;;;;;;12.40;100.00;98394.09;4156911;28;20042;-75
2022/10/22 08:10:22;;;;;;;4.35;1.27;;;;;;;12.44;100.00;98396.91;4157713;28;20049;-75
2022/10/22 08:12:23;;;;;;;1.80;1.25;;;;;;;12.43;100.00;98393.31;4158905;28;20500;-75
2022/10/22 08:14:23;;;;;;;3.60;1.42;;;;;;;12.50;100.00;98401.69;4160725;28;20048;-74
2022/10/22 08:16:23;;;;;;;1.67;1.00;;;;;;;12.56;100.00;98391.75;4159856;28;20735;-74
2022/10/22 08:18:24;;;;;;;2.35;1.00;;;;;;;12.68;100.00;98396.16;4158948;28;20446;-74
2022/10/22 08:20:25;;;;;;;4.03;1.00;;;;;;;12.76;100.00;98397.75;4159680;28;20041;-74
2022/10/22 08:22:25;;;;;;;2.33;1.45;;;;;;;12.79;100.00;98399.72;4158793;28;20092;-74
2022/10/22 08:24:26;;;;;;;4.70;1.05;;;;;;;12.82;100.00;98398.94;4162835;28;20097;-75
2022/10/22 08:26:26;;;;;;;1.60;1.10;;;;;;;12.86;100.00;98407.28;4159890;28;20041;-74
2022/10/22 08:28:28;;;;;;;1.65;0.90;;;;;;;12.89;100.00;98401.72;4160049;28;20442;-75
2022/10/22 08:30:28;;;;;;;1.70;0.87;;;;;;;12.94;100.00;98398.56;4161325;28;20051;-74
2022/10/22 08:32:29;;;;;;;3.63;1.20;;;;;;;13.08;100.00;98402.56;4160342;28;20440;-75
2022/10/22 08:34:30;;;;;;;2.35;1.10;;;;;;;13.15;100.00;98408.88;4161583;28;20045;-74
2022/10/22 08:36:30;;;;;;;2.22;1.10;;;;;;;13.29;100.00;98412.88;4159172;28;20072;-75
2022/10/22 08:38:31;;;;;;;2.58;1.00;;;;;;;13.36;100.00;98408.13;4157924;28;20512;-75
2022/10/22 08:40:36;;;;;;;1.60;1.17;;;;;;;13.44;100.00;98406.13;4156964;28;20060;-74
2022/10/22 08:42:44;;;;;;;3.05;0.88;;;;;;;13.54;100.00;98412.84;4156395;28;20136;-74
2022/10/22 08:44:59;;;;;;;1.40;0.90;;;;;;;13.59;100.00;98413.25;4160326;28;20164;-75
2022/10/22 08:47:08;;;;;;;1.73;0.90;;;;;;;13.68;100.00;98413.63;4158767;28;20056;-75
2022/10/22 08:49:17;;;;;;;3.20;1.00;;;;;;;13.75;100.00;98401.72;4162384;28;20104;-75
2022/10/22 08:51:22;;;;;;;0.98;0.90;;;;;;;13.89;100.00;98414.75;4158365;28;20049;-75
2022/10/22 08:53:30;;;;;;;1.10;0.80;;;;;;;14.00;100.00;98418.31;4162593;28;20045;-74
2022/10/22 08:55:32;;;;;;;2.55;1.13;;;;;;;14.06;99.31;98405.56;4155141;28;20049;-74
2022/10/22 08:57:38;;;;;;;0.95;0.73;;;;;;;14.08;97.63;98410.75;4157240;28;20436;-75
2022/10/22 08:59:56;;;;;;;1.55;0.60;;;;;;;14.15;95.11;98417.09;4161356;28;20083;-74
2022/10/22 09:01:57;;;;;;;3.22;0.68;;;;;;;14.13;95.27;98408.31;4156190;28;20116;-75
2022/10/22 09:04:25;;;;;;;3.45;0.82;;;;;;;14.10;96.81;98413.91;4157560;28;20497;-75
2022/10/22 09:06:32;;;;;;;1.73;0.82;;;;;;;14.09;95.15;98417.91;4151953;28;20312;-75
2022/10/22 09:08:34;;;;;;;2.08;0.90;;;;;;;14.07;96.22;98412.75;4158000;28;20053;-75
2022/10/22 09:10:37;;;;;;;0.90;0.68;;;;;;;14.03;97.91;98417.50;4156557;28;20132;-75
2022/10/22 09:12:37;;;;;;;2.25;0.82;;;;;;;14.04;95.98;98421.88;4156572;28;20042;-75
2022/10/22 09:14:37;;;;;;;1.17;0.60;;;;;;;14.03;95.10;98415.53;4157347;28;20044;-75
2022/10/22 09:17:03;;;;;;;0.68;0.60;;;;;;;14.04;93.83;98419.88;4156942;28;20099;-75
2022/10/22 09:19:28;;;;;;;1.25;0.88;;;;;;;14.11;94.64;98412.72;4156038;28;20083;-75
2022/10/22 09:21:58;;;;;;;1.80;0.90;;;;;;;14.16;94.71;98420.66;4154892;28;20307;-75
2022/10/22 09:24:12;;;;;;;1.00;0.70;;;;;;;14.14;95.98;98411.91;4158548;28;20048;-75
2022/10/22 09:26:15;;;;;;;2.25;0.80;;;;;;;14.13;96.82;98419.47;4157372;28;20312;-75
2022/10/22 09:28:15;;;;;;;1.52;0.98;;;;;;;14.07;97.51;98415.53;4159825;28;20083;-75
2022/10/22 09:30:22;;;;;;;1.65;0.90;;;;;;;14.03;96.78;98421.09;4155942;28;20132;-75
2022/10/22 09:32:22;;;;;;;1.23;0.93;;;;;;;14.10;96.17;98427.81;4157386;28;20080;-75